Copeland, Kansas
Current Conditions -  °F | °C
As of 7:54 PM on Wednesday 26 Nov 2014 (Local Time) from KGCK Reporting Station
Clear Clear  
Wind Chill: 21°   Ceiling: Unl
Heat Index: 30°   Visibility: 10mi
Dew Point: 17°   Wind: 10mph
Humidity: 59%   Direction: 50°NE
Pressure: 30.36"   Gusts: NA
Location:  37.54°N, 100.63°W
Report Text: KGCK 270154Z 05009KT 10SM CLR M01/M08 A3036 RMK AO2 SLP302 T10111083
Loading
Personal Weather Stations






























Interactive Weather Map New forecast layout! Learn more

10-Day Weather Forecast

Advertisements
Track Severe Weather on mobile